NCAR-RAP Real-Time Weather Data

Output produced by METARs form (17 October 2018  16:46 UTC)
found at http://weather.rap.ucar.edu/surface/
 
RJAA 171630Z 33005KT 9999 FEW020 BKN/// 14/13 Q1014 NOSIG
RJAA 171600Z 33005KT 9999 FEW020 SCT/// 14/13 Q1014 NOSIG RMK 1CU020 A2994
RJAA 171530Z 34003KT 310V010 9999 FEW020 BKN/// 14/13 Q1013 NOSIG
RJAA 171500Z 01006KT 9999 FEW020 SCT200 BKN/// 15/13 Q1013 NOSIG RMK 1CU020 4AC200 A2994
RJAA 171430Z 33004KT 9999 FEW020 BKN/// 15/13 Q1014 NOSIG
RJAA 171400Z 02006KT 9999 FEW020 BKN/// 15/13 Q1013 NOSIG
RJAA 171330Z 02006KT 9999 FEW020 SCT110 BKN/// 17/14 Q1014 NOSIG
RJAA 171300Z 02006KT 9999 FEW020 SCT110 BKN/// 17/13 Q1014 NOSIG
RJAA 171230Z 01006KT 9999 FEW020 SCT080 BKN110 17/13 Q1014 NOSIG RMK 1CU020 3AC080 6AC110 A2995
RJAA 171200Z 04006KT 9999 FEW020 BKN100 BKN/// 17/13 Q1013 NOSIG
RJAA 171130Z 03008KT 9999 FEW020 SCT080 BKN110 17/13 Q1013 NOSIG RMK 1CU020 3AC080 5AC110 A2994
RJAA 171100Z 03009KT 9999 FEW020 BKN080 BKN110 17/13 Q1013 NOSIG RMK 1CU020 5AC080 7AC110 A2994
RJAA 171030Z 03007KT 360V060 9999 FEW020 BKN080 17/13 Q1013 NOSIG RMK 1CU020 7AC080 A2993
RJAA 171000Z 04007KT 010V080 9999 FEW020 SCT080 BKN110 17/13 Q1013 NOSIG RMK 1CU020 4AC080 6AC110 A2993
RJAA 170930Z 03009KT 360V060 9999 FEW020 BKN110 BKN/// 18/13 Q1013 NOSIG
RJAA 170900Z 04008KT 010V070 9999 FEW020 BKN110 BKN/// 18/12 Q1013 WS R34L NOSIG
RJAA 170830Z 04009KT 350V070 9999 FEW020 SCT090 BKN/// 18/13 Q1012 NOSIG
RJAA 170800Z 04010KT 010V070 9999 FEW020 SCT090 BKN/// 18/13 Q1012 NOSIG
RJAA 170730Z 04010KT 9999 FEW020 BKN/// 18/14 Q1011 NOSIG
RJAA 170700Z 04012KT 360V070 9999 FEW020 BKN/// 19/14 Q1011 NOSIG
RJAA 170630Z 05013KT 010V080 9999 FEW020 BKN/// 19/14 Q1011 NOSIG
RJAA 170600Z 05015KT 9999 FEW020 SCT025 BKN/// 19/14 Q1010 NOSIG
RJAA 170530Z 02014KT 9999 FEW025 SCT050 BKN/// 20/14 Q1010 NOSIG RMK 1CU025 3SC050 A2983
RJAA 170500Z 03014KT 9999 FEW025 BKN030 BKN/// 20/14 Q1009 NOSIG RMK 1CU025 5CU030 A2982
RJAA 170430Z 03011KT 9999 FEW025 BKN/// 21/14 Q1009 NOSIG RMK 1CU025 A2982
RJAA 170400Z 04011KT 340V070 9999 FEW020 BKN080 BKN/// 21/14 Q1009 NOSIG RMK 2CU020 5AC080 A2982
RJAA 170330Z 02012KT 9999 FEW020 BKN120 BKN/// 21/13 Q1009 NOSIG RMK 2CU020 6AC120 A2982
RJAA 170300Z 04010KT 010V070 9999 FEW015 SCT020 BKN/// 21/14 Q1010 NOSIG RMK 1CU015 3CU020 A2982
RJAA 170230Z 04010KT 010V070 9999 FEW012 SCT015 BKN130 21/15 Q1010 NOSIG RMK 1CU012 3CU015 5AC130 A2984
RJAA 170200Z 03009KT 360V060 9999 FEW012 BKN015 BKN/// 20/16 Q1010 NOSIG RMK 1CU012 5CU015 A2984
RJAA 170147Z 03009KT 360V070 9999 FEW012 BKN015 BKN/// 20/16 Q1010 RMK 1CU012 5CU015 A2984
RJAA 170130Z 02008KT 9999 FEW010 BKN014 21/17 Q1010 BECMG TL0230 FEW010 SCT014
RJAA 170121Z 02010KT 9999 FEW010 BKN014 BKN130 20/16 Q1010 RMK 1CU010 6CU014 7AC130 A2984
RJAA 170100Z 01009KT 340V050 9999 FEW012 BKN130 19/16 Q1010 NOSIG RMK 2CU012 6AC130 A2984
RJAA 170030Z 36008KT 9000 FEW006 BKN130 18/16 Q1010 NOSIG RMK 1ST006 7AC130 A2984
RJAA 170000Z 33008KT 8000 FEW005 BKN130 17/16 Q1010 NOSIG RMK 1ST005 7AC130 A2984
RJAA 162343Z 34007KT 6000 -RA FEW004 BKN120 17/16 Q1010 RMK 1ST004 6AC120 A2984
RJAA 162330Z 33006KT 4500 BR FEW003 SCT080 BKN120 16/16 Q1010 BECMG 8000 NSW
RJAA 162300Z 31003KT 280V350 4500 -RA BR FEW002 BKN070 16/15 Q1010 NOSIG RMK 1ST002 7AC070 A2985
RJAA 162230Z 32003KT 4500 BR FEW002 BKN070 16/15 Q1010 BECMG 8000 NSW
RJAA 162200Z 32004KT 5000 BR FEW003 BKN070 16/15 Q1009 NOSIG RMK 1ST003 7AC070 A2982
RJAA 162146Z 31004KT 5000 -RA BR FEW003 BKN070 BKN110 16/15 Q1009 RMK 1ST003 5AC070 6AS110 A2982
RJAA 162130Z 32004KT 4500 -RA BR FEW002 SCT070 BKN110 16/15 Q1009 BECMG 8000 -RA
RJAA 162100Z 34005KT 4000 -RA BR FEW020 BKN100 15/15 Q1009 BECMG 6000 -RA RMK 1SC020 7AS100 A2981
RJAA 162044Z 32005KT 4000 -RA BR FEW020 OVC100 15/15 Q1009 RMK 1SC020 8AS100 A2981
RJAA 162030Z 32004KT 290V360 5000 -RA BR FEW020 OVC100 16/15 Q1009 NOSIG RMK 1SC020 8AS100 A2981
RJAA 162000Z 31004KT 6000 -RA FEW020 OVC100 16/15 Q1009 NOSIG RMK 1SC020 8AS100 A2981
RJAA 161930Z 34006KT 8000 -RA FEW020 OVC100 16/15 Q1008 NOSIG RMK 1SC020 8AS100 A2979
RJAA 161900Z 31004KT 280V340 7000 -RA FEW020 OVC100 16/15 Q1008 NOSIG RMK 1SC020 8AS100 A2979
RJAA 161830Z 31004KT 8000 -RA FEW010 SCT020 OVC100 16/15 Q1008 TEMPO FEW010 BKN013 RMK 1ST010 3SC020 8AS100 A2979
RJAA 161800Z 32004KT 9999 FEW010 SCT013 OVC100 16/15 Q1008 TEMPO FEW010 BKN013 RMK 1ST010 4CU013 8AS100 A2977
RJAA 161730Z 34005KT 9999 -RA FEW015 OVC110 16/15 Q1008 NOSIG RMK 2CU015 8AS110 A2977
RJAA 161700Z 35007KT 9000 -RA FEW015 OVC110 16/15 Q1008 NOSIG RMK 1CU015 8AS110 A2978
RJAA 161630Z 34006KT 9000 -RA FEW015 OVC110 16/16 Q1008 NOSIG RMK 1CU015 8AS110 A2979
RJAA 161600Z 33006KT 9000 -RA FEW015 OVC100 16/15 Q1009 NOSIG RMK 1CU015 8AS100 A2981
RJAA 161530Z 33008KT 8000 -RA FEW015 SCT080 OVC100 16/15 Q1009 NOSIG RMK 1CU015 3AC080 8AS100 A2981
RJAA 161500Z 33007KT 8000 FEW015 BKN080 17/16 Q1009 NOSIG RMK 1CU015 7AC080 A2982
RJAA 161430Z 34007KT 8000 FEW015 BKN140 BKN/// 17/16 Q1009 NOSIG
RJAA 161400Z 34008KT 9999 FEW015 SCT160 BKN/// 17/16 Q1009 NOSIG
RJAA 161330Z 35007KT 9999 FEW015 SCT180 BKN/// 17/16 Q1010 NOSIG RMK 1CU015 3AC180 A2982
RJAA 161300Z 36008KT 9999 FEW015 BKN/// 18/16 Q1010 NOSIG RMK 1CU015 A2983
RJAA 161230Z 36008KT 9999 FEW020 BKN070 BKN/// 18/16 Q1010 NOSIG
RJAA 161200Z 01009KT 9999 FEW020 SCT160 BKN/// 18/16 Q1010 NOSIG RMK 1CU020 3AC160 A2984
RJAA 161130Z 01009KT 9999 FEW020 SCT060 BKN/// 18/16 Q1010 NOSIG
RJAA 161100Z 02007KT 9999 FEW020 BKN060 BKN/// 18/16 Q1011 NOSIG
RJAA 161030Z 01010KT 9999 FEW020 SCT060 BKN/// 18/16 Q1011 NOSIG RMK 1CU020 4SC060 A2986
RJAA 161000Z 02008KT 9999 FEW020 SCT180 BKN/// 18/16 Q1011 NOSIG RMK 1CU020 3AC180 A2987
RJAA 160930Z 02010KT 9999 FEW020 BKN180 19/16 Q1011 NOSIG RMK 1CU020 7AC180 A2986
RJAA 160900Z 01010KT 9999 FEW020 BKN180 19/16 Q1011 NOSIG RMK 1CU020 7AC180 A2987
RJAA 160830Z 02009KT 9999 FEW020 BKN180 19/17 Q1011 NOSIG RMK 1CU020 7AC180 A2988
RJAA 160800Z 03007KT 9999 FEW015 SCT190 OVC/// 19/17 Q1012 NOSIG
RJAA 160730Z 03006KT 9999 FEW013 BKN/// 19/17 Q1012 NOSIG
RJAA 160700Z 03007KT 360V060 9999 FEW013 BKN/// 19/17 Q1012 NOSIG
RJAA 160630Z 03007KT 360V070 9999 FEW015 OVC/// 20/17 Q1012 NOSIG
RJAA 160600Z 02008KT 360V060 9999 FEW015 SCT050 BKN/// 20/16 Q1012 NOSIG
RJAA 160530Z 04007KT 9999 FEW015 SCT020 BKN050 20/16 Q1012 NOSIG RMK 1CU015 3CU020 6SC050 A2990
RJAA 160500Z 03007KT 340V070 9999 FEW015 BKN050 BKN180 20/16 Q1012 NOSIG RMK 1CU015 6SC050 7AC180 A2990
RJAA 160430Z 03007KT 9999 FEW015 BKN050 BKN180 20/16 Q1012 NOSIG RMK 1CU015 6SC050 7AC180 A2990
RJAA 160400Z 02006KT 9999 FEW018 BKN050 BKN180 20/16 Q1012 NOSIG RMK 2CU018 5SC050 7AC180 A2990
RJAA 160330Z 02006KT 360V070 9999 FEW020 BKN060 BKN180 20/16 Q1012 NOSIG RMK 2CU020 5SC060 7AC180 A2990
RJAA 160300Z 02006KT 330V050 9999 FEW020 BKN050 BKN170 20/15 Q1013 NOSIG RMK 1CU020 5SC050 7AC170 A2993
RJAA 160230Z 01005KT 320V080 9999 FEW020 BKN050 BKN/// 20/15 Q1014 NOSIG RMK 1CU020 5SC050 A2995
RJAA 160200Z 01006KT 310V060 9999 FEW015 BKN050 BKN070 19/15 Q1014 NOSIG RMK 1CU015 6SC050 7AC070 A2995
RJAA 160130Z 02007KT 340V050 9999 FEW015 SCT018 BKN050 20/15 Q1014 NOSIG RMK 1CU015 3SC018 7SC050 A2996
RJAA 160100Z 01006KT 320V060 9999 FEW025 SCT070 BKN190 19/15 Q1015 NOSIG RMK 1CU025 3AC070 7AC190 A2997
RJAA 160030Z 34006KT 300V010 9999 FEW020 SCT070 BKN/// 19/16 Q1015 NOSIG RMK 1CU020 3AC070 A2997
RJAA 160000Z 33005KT 9999 FEW020 SCT050 BKN/// 18/15 Q1015 NOSIG
RJAA 152330Z 32004KT 9999 FEW020 BKN070 BKN/// 17/15 Q1015 NOSIG RMK 1CU020 5AC070 A3000
RJAA 152300Z 32004KT 9999 FEW020 SCT060 BKN080 16/15 Q1016 NOSIG RMK 1CU020 4SC060 7AC080 A3001
RJAA 152230Z 32003KT 8000 FEW015 BKN060 BKN080 16/15 Q1016 NOSIG RMK 1CU015 5SC060 7AC080 A3001
RJAA 152200Z 33003KT 7000 FEW015 SCT070 BKN/// 15/15 Q1015 NOSIG RMK 1CU015 4AC070 A3000
RJAA 152130Z 32003KT 7000 MIFG FEW015 SCT060 BKN/// 15/14 Q1015 NOSIG
RJAA 152100Z 32002KT 7000 R34L/P2000N R34R/P2000N MIFG FEW015 BKN/// 14/14 Q1015 NOSIG RMK 1CU015 A2999
RJAA 152030Z 32003KT 7000 MIFG FEW015 BKN/// 15/14 Q1015 NOSIG
RJAA 152000Z 33004KT 9999 FEW015 BKN/// 15/14 Q1015 NOSIG
RJAA 151930Z 33004KT 9999 FEW020 SCT070 BKN/// 15/14 Q1015 NOSIG
RJAA 151900Z 33005KT 8000 FEW020 SCT070 BKN/// 15/14 Q1015 NOSIG RMK 1CU020 3AC070 A2999
RJAA 151830Z 33005KT 8000 FEW020 SCT080 BKN/// 15/14 Q1015 NOSIG
RJAA 151800Z 33005KT 8000 FEW020 BKN080 15/15 Q1016 NOSIG RMK 1CU020 6AC080 A3000
RJAA 151730Z 33004KT 8000 FEW020 BKN090 16/15 Q1016 NOSIG RMK 1CU020 6AC090 A3000
RJAA 151700Z 01008KT 9999 FEW020 SCT080 16/15 Q1015 NOSIG RMK 1CU020 3AC080 A2999
RJAA 151630Z 01006KT 9999 FEW020 BKN080 16/15 Q1015 NOSIG RMK 1CU020 7AC080 A2999
RJAA 151600Z 33005KT 9999 FEW020 BKN080 16/15 Q1015 NOSIG RMK 1CU020 6AC080 A3000
RJAA 151530Z 34006KT 9999 FEW020 BKN080 16/15 Q1016 NOSIG RMK 1CU020 7AC080 A3001
RJAA 151500Z 33003KT 9999 FEW020 BKN080 17/15 Q1016 NOSIG RMK 1CU020 7AC080 A3001
RJAA 151430Z 35005KT 9999 FEW020 BKN090 17/15 Q1016 NOSIG RMK 1CU020 7AC090 A3001
RJAA 151400Z 36005KT 9999 FEW020 BKN090 17/15 Q1016 NOSIG RMK 1CU020 7AC090 A3002
RJAA 151330Z 03004KT 9999 FEW020 BKN080 17/15 Q1016 NOSIG RMK 1CU020 7AC080 A3003
RJAA 151300Z 02004KT 340V050 9999 FEW020 BKN080 17/15 Q1017 NOSIG RMK 1CU020 7AC080 A3003
RJAA 151230Z 02005KT 9999 FEW020 BKN080 17/15 Q1017 NOSIG RMK 1CU020 7AC080 A3003
RJAA 151200Z 01007KT 9999 FEW030 BKN090 18/15 Q1017 NOSIG RMK 1CU030 7AC090 A3004
RJAA 151130Z 01007KT 9999 FEW030 BKN090 18/15 Q1017 NOSIG RMK 1CU030 7AC090 A3004
RJAA 151100Z 35006KT 9999 -SHRA FEW030 BKN090 17/15 Q1017 NOSIG RMK 2CU030 7AC090 A3004
RJAA 151030Z 36006KT 330V040 9999 -SHRA FEW030 BKN100 17/15 Q1017 NOSIG RMK 1CU030 7AC100 A3004
RJAA 151000Z 02008KT 9999 -SHRA FEW020 BKN090 18/15 Q1017 NOSIG RMK 1CU020 7AC090 A3004
RJAA 150930Z 02007KT 9999 -SHRA FEW020 BKN110 18/15 Q1017 NOSIG RMK 1CU020 7AC110 A3003
RJAA 150900Z 02006KT 350V070 9999 -SHRA FEW020 SCT070 BKN100 18/15 Q1016 NOSIG RMK 1CU020 3AC070 7AC100 A3003
RJAA 150830Z 06004KT 010V100 9999 -SHRA FEW020 BKN100 18/15 Q1016 BECMG 05005KT
RJAA 150800Z 07004KT 020V110 9999 -SHRA FEW020 BKN100 18/14 Q1017 BECMG 05005KT RMK 1CU020 7AC100 A3003
RJAA 150730Z 05004KT 010V110 9999 FEW020 BKN100 18/15 Q1017 NOSIG RMK 1CU020 7AC100 A3003 MOD TURB OBS AT 0725Z BINKS 9000FT IN DES B773 CPA450
RJAA 150700Z 05006KT 010V090 9999 FEW020 BKN110 19/14 Q1017 NOSIG RMK 1CU020 7AC110 A3003
RJAA 150630Z 03006KT 9999 FEW020 BKN120 19/14 Q1017 NOSIG RMK 1CU020 7AC120 A3004
RJAA 150600Z 03008KT 9999 FEW020 BKN120 19/14 Q1017 NOSIG RMK 1CU020 7AC120 A3004
RJAA 150530Z 05007KT 010V110 9999 FEW020 SCT130 BKN180 20/14 Q1017 NOSIG RMK 1CU020 4AC130 7AC180 A3003
RJAA 150500Z 04005KT 360V080 9999 FEW020 BKN090 20/15 Q1017 NOSIG RMK 1CU020 7AS090 A3003